createdAt,value
2019-05-26T00:00:46.677Z,73.10
2019-05-26T00:03:17.476Z,72.40
2019-05-26T00:05:47.832Z,71.20
2019-05-26T00:08:18.165Z,71.30
2019-05-26T00:10:48.560Z,70.60
2019-05-26T00:13:18.927Z,70.60
2019-05-26T00:15:49.301Z,72.30
2019-05-26T00:18:19.616Z,71.40
2019-05-26T00:20:49.984Z,71.60
2019-05-26T00:23:20.926Z,70.50
2019-05-26T00:25:51.284Z,70.90
2019-05-26T00:28:22.027Z,71.00
2019-05-26T00:30:52.407Z,71.80
2019-05-26T00:33:22.838Z,72.30
2019-05-26T00:35:53.606Z,72.50
2019-05-26T00:38:23.978Z,72.70
2019-05-26T00:40:54.649Z,73.30
2019-05-26T00:43:25.006Z,73.10
2019-05-26T00:45:55.386Z,73.20
2019-05-26T00:48:25.748Z,73.70
2019-05-26T00:50:56.083Z,74.00
2019-05-26T00:53:26.421Z,74.40
2019-05-26T00:55:56.918Z,74.50
2019-05-26T00:58:27.296Z,75.00
2019-05-26T01:00:57.622Z,74.90
2019-05-26T01:03:27.977Z,75.30
2019-05-26T01:05:58.477Z,76.60
2019-05-26T01:08:28.855Z,77.00
2019-05-26T01:11:01.421Z,77.40
2019-05-26T01:13:31.265Z,77.50
2019-05-26T01:16:01.655Z,77.40
2019-05-26T01:18:31.985Z,77.80
2019-05-26T01:21:02.941Z,78.10
2019-05-26T01:23:33.294Z,79.00
2019-05-26T01:26:03.931Z,79.60
2019-05-26T01:28:34.541Z,80.30
2019-05-26T01:31:04.939Z,80.20
2019-05-26T01:33:54.697Z,80.90
2019-05-26T01:36:25.062Z,81.30
2019-05-26T01:38:55.390Z,81.40
2019-05-26T01:41:25.796Z,81.50
2019-05-26T01:43:56.888Z,82.10
2019-05-26T01:46:27.656Z,82.10
2019-05-26T01:48:58.204Z,82.40
2019-05-26T01:51:28.584Z,82.60
2019-05-26T01:53:58.927Z,82.40
2019-05-26T01:56:29.665Z,82.40
2019-05-26T01:58:59.997Z,82.80
2019-05-26T02:01:30.345Z,83.10
2019-05-26T02:04:00.733Z,83.20
2019-05-26T02:06:31.090Z,83.40
2019-05-26T02:09:03.428Z,83.70
2019-05-26T02:11:33.965Z,83.80
2019-05-26T02:14:04.830Z,84.00
2019-05-26T02:16:35.473Z,84.10
2019-05-26T02:19:06.286Z,84.50
2019-05-26T02:21:37.038Z,84.60
2019-05-26T02:24:07.552Z,84.60
2019-05-26T02:26:37.956Z,84.60
2019-05-26T02:29:08.600Z,84.60
2019-05-26T02:31:38.939Z,84.60
2019-05-26T02:34:09.726Z,84.60
2019-05-26T02:36:40.099Z,84.20
2019-05-26T02:39:10.532Z,84.50
2019-05-26T02:41:40.890Z,85.20
2019-05-26T02:44:11.813Z,84.50
2019-05-26T02:46:42.696Z,84.50
2019-05-26T02:49:13.061Z,84.50
2019-05-26T02:51:43.489Z,84.50
2019-05-26T02:54:14.122Z,84.90
2019-05-26T02:56:44.474Z,84.70
2019-05-26T02:59:14.879Z,84.90
2019-05-26T03:02:05.170Z,84.50
2019-05-26T03:04:35.636Z,84.70
2019-05-26T03:07:06.054Z,84.70
2019-05-26T03:09:36.482Z,85.10
2019-05-26T03:12:06.828Z,85.20
2019-05-26T03:14:37.527Z,85.50
2019-05-26T03:17:07.865Z,85.50
2019-05-26T03:19:38.662Z,85.40
2019-05-26T03:22:09.392Z,85.50
2019-05-26T03:24:39.748Z,85.40
2019-05-26T03:27:10.505Z,85.40
2019-05-26T03:29:40.863Z,85.00
2019-05-26T03:32:11.191Z,85.30
2019-05-26T03:34:41.566Z,85.10
2019-05-26T03:37:12.306Z,84.70
2019-05-26T03:39:46.197Z,84.70
2019-05-26T03:42:15.469Z,84.20
2019-05-26T03:44:45.802Z,83.70
2019-05-26T03:47:17.125Z,83.50
2019-05-26T03:49:48.342Z,83.80
2019-05-26T03:52:18.718Z,83.10
2019-05-26T03:54:49.071Z,82.70
2019-05-26T03:57:19.939Z,82.10
2019-05-26T03:59:50.263Z,81.60
2019-05-26T04:02:20.625Z,80.40
2019-05-26T04:04:51.010Z,79.50
2019-05-26T04:07:21.350Z,79.50
2019-05-26T04:10:04.034Z,77.30
2019-05-26T04:12:23.748Z,76.50
2019-05-26T04:14:54.133Z,77.10
2019-05-26T04:17:24.861Z,75.20
2019-05-26T04:19:55.731Z,74.70
2019-05-26T04:22:26.157Z,75.00
2019-05-26T04:24:56.476Z,74.10
2019-05-26T04:27:26.815Z,73.60
2019-05-26T04:29:57.577Z,72.60
2019-05-26T04:32:27.948Z,72.50
2019-05-26T04:34:58.324Z,71.70
2019-05-26T04:37:29.043Z,71.00
2019-05-26T04:39:59.411Z,69.90
2019-05-26T04:42:29.775Z,69.90
2019-05-26T04:45:00.430Z,69.00
2019-05-26T04:47:30.875Z,68.30
2019-05-26T04:50:01.240Z,68.60
2019-05-26T04:52:31.890Z,68.70
2019-05-26T04:55:02.774Z,68.10
2019-05-26T04:57:33.947Z,66.80
2019-05-26T05:00:09.228Z,66.80
2019-05-26T05:02:39.653Z,66.90
2019-05-26T05:05:10.392Z,66.80
2019-05-26T05:07:40.843Z,66.90
2019-05-26T05:10:11.356Z,66.50
2019-05-26T05:12:42.108Z,66.20
2019-05-26T05:15:12.457Z,65.30
2019-05-26T05:17:43.326Z,63.90
2019-05-26T05:20:15.017Z,64.00
2019-05-26T05:22:45.431Z,64.40
2019-05-26T05:25:17.471Z,63.90
2019-05-26T05:27:48.424Z,63.30
2019-05-26T05:30:19.590Z,63.80
2019-05-26T05:32:49.889Z,63.10
2019-05-26T05:35:20.257Z,63.70
2019-05-26T05:37:50.673Z,62.40
2019-05-26T05:40:21.040Z,62.50
2019-05-26T05:42:51.462Z,61.80
2019-05-26T05:45:22.129Z,61.50
2019-05-26T05:47:52.507Z,60.10
2019-05-26T05:50:23.055Z,59.50
2019-05-26T05:52:53.847Z,58.60
2019-05-26T05:55:24.231Z,57.20
2019-05-26T05:57:54.927Z,57.40
2019-05-26T06:00:25.772Z,56.50
2019-05-26T06:02:56.362Z,55.30
2019-05-26T06:05:26.895Z,54.80
2019-05-26T06:07:57.758Z,54.90
2019-05-26T06:10:28.155Z,54.10
2019-05-26T06:12:58.492Z,53.60
2019-05-26T06:15:28.923Z,53.20
2019-05-26T06:17:59.273Z,52.60
2019-05-26T06:20:29.604Z,52.70
2019-05-26T06:23:00.010Z,52.60
2019-05-26T06:25:30.376Z,51.30
2019-05-26T06:28:01.199Z,51.10
2019-05-26T06:30:32.077Z,51.10
2019-05-26T06:33:02.475Z,51.00
2019-05-26T06:35:33.175Z,50.40
2019-05-26T06:38:04.014Z,49.40
2019-05-26T06:40:34.517Z,50.50
2019-05-26T06:43:05.233Z,50.30
2019-05-26T06:45:35.644Z,50.40
2019-05-26T06:48:06.032Z,49.40
2019-05-26T06:50:36.726Z,48.80
2019-05-26T06:53:07.464Z,49.10
2019-05-26T06:55:37.878Z,48.20
2019-05-26T06:58:08.215Z,49.60
2019-05-26T07:00:38.998Z,47.20
2019-05-26T07:03:09.668Z,47.10
2019-05-26T07:05:40.053Z,47.50
2019-05-26T07:08:10.725Z,47.30
2019-05-26T07:10:41.463Z,46.40
2019-05-26T07:13:11.794Z,45.80
2019-05-26T07:15:42.259Z,45.90
2019-05-26T07:18:12.641Z,45.20
2019-05-26T07:20:43.647Z,44.90
2019-05-26T07:23:14.297Z,44.70
2019-05-26T07:25:44.662Z,43.40
2019-05-26T07:28:15.101Z,43.50
2019-05-26T07:30:45.443Z,41.40
2019-05-26T07:33:15.836Z,41.70
2019-05-26T07:35:49.702Z,41.90
2019-05-26T07:38:38.073Z,42.00
2019-05-26T07:41:08.442Z,40.70
2019-05-26T07:43:38.914Z,39.40
2019-05-26T07:46:09.253Z,39.50
2019-05-26T07:48:39.612Z,39.20
2019-05-26T07:51:10.014Z,37.60
2019-05-26T07:53:40.661Z,38.00
2019-05-26T07:56:11.400Z,37.50
2019-05-26T07:58:42.189Z,38.10
2019-05-26T08:01:12.549Z,36.50
2019-05-26T08:03:43.311Z,36.50
2019-05-26T08:06:13.670Z,35.50
2019-05-26T08:08:44.370Z,35.90
2019-05-26T08:11:15.421Z,35.90
2019-05-26T08:13:46.130Z,35.50
2019-05-26T08:16:16.523Z,36.50
2019-05-26T08:18:47.041Z,35.90
2019-05-26T08:21:17.477Z,37.20
2019-05-26T08:23:47.833Z,34.70
2019-05-26T08:26:18.227Z,33.90
2019-05-26T08:28:48.570Z,35.70
2019-05-26T08:31:18.907Z,34.90
2019-05-26T08:33:49.590Z,34.50
2019-05-26T08:36:20.059Z,34.00
2019-05-26T08:38:50.776Z,32.50
2019-05-26T08:41:20.597Z,32.70
2019-05-26T08:43:51.000Z,32.70
2019-05-26T08:46:21.366Z,32.90
2019-05-26T08:48:51.746Z,33.00
2019-05-26T08:51:22.455Z,32.30
2019-05-26T08:53:52.895Z,31.90
2019-05-26T08:56:23.267Z,32.50
2019-05-26T08:58:53.751Z,33.00
2019-05-26T09:01:24.491Z,31.70
2019-05-26T09:03:54.856Z,31.70
2019-05-26T09:06:25.187Z,31.20
2019-05-26T09:08:55.963Z,30.80
2019-05-26T09:11:26.660Z,31.30
2019-05-26T09:13:57.057Z,31.00
2019-05-26T09:16:27.896Z,31.20
2019-05-26T09:18:58.254Z,30.00
2019-05-26T09:21:28.613Z,31.40
2019-05-26T09:23:58.956Z,30.20
2019-05-26T09:26:29.395Z,31.30
2019-05-26T09:29:00.026Z,30.50
2019-05-26T09:31:34.024Z,30.80
2019-05-26T09:34:03.109Z,30.70
2019-05-26T09:36:33.455Z,29.80
2019-05-26T09:39:05.729Z,29.80
2019-05-26T09:41:36.458Z,29.30
2019-05-26T09:44:06.858Z,28.70
2019-05-26T09:46:37.189Z,28.70
2019-05-26T09:49:07.527Z,28.70
2019-05-26T09:51:37.917Z,27.40
2019-05-26T09:54:08.619Z,27.70
2019-05-26T09:56:38.955Z,28.50
2019-05-26T09:59:09.457Z,28.50
2019-05-26T10:01:40.164Z,28.50
2019-05-26T10:04:10.438Z,28.30
2019-05-26T10:06:41.416Z,28.10
2019-05-26T10:09:11.940Z,28.80
2019-05-26T10:11:42.302Z,28.40
2019-05-26T10:14:12.990Z,27.90
2019-05-26T10:16:43.730Z,26.90
2019-05-26T10:19:14.100Z,27.70
2019-05-26T10:21:44.446Z,27.30
2019-05-26T10:24:14.783Z,26.90
2019-05-26T10:26:45.515Z,26.70
2019-05-26T10:29:16.231Z,26.50
2019-05-26T10:31:46.906Z,26.40
2019-05-26T10:34:17.324Z,26.20
2019-05-26T10:36:47.705Z,26.50
2019-05-26T10:39:18.393Z,26.50
2019-05-26T10:41:50.050Z,25.80
2019-05-26T10:44:20.380Z,25.90
2019-05-26T10:46:51.373Z,26.10
2019-05-26T10:49:21.711Z,26.50
2019-05-26T10:51:52.088Z,26.90
2019-05-26T10:54:22.752Z,27.10
2019-05-26T10:56:53.749Z,27.60
2019-05-26T10:59:24.496Z,27.10
2019-05-26T11:01:54.862Z,27.00
2019-05-26T11:04:25.304Z,26.70
2019-05-26T11:06:55.666Z,26.30
2019-05-26T11:09:26.342Z,26.40
2019-05-26T11:11:56.714Z,26.50
2019-05-26T11:14:27.080Z,26.70
2019-05-26T11:16:57.482Z,27.10
2019-05-26T11:19:28.192Z,26.00
2019-05-26T11:21:58.735Z,26.30
2019-05-26T11:24:29.100Z,26.00
2019-05-26T11:27:09.719Z,25.70
2019-05-26T11:29:32.212Z,24.60
2019-05-26T11:32:02.958Z,25.20
2019-05-26T11:34:33.344Z,24.30
2019-05-26T11:37:03.782Z,24.70
2019-05-26T11:39:34.195Z,24.40
2019-05-26T11:42:12.949Z,26.60
2019-05-26T11:44:36.620Z,24.60
2019-05-26T11:47:07.035Z,24.50
2019-05-26T11:49:37.417Z,23.70
2019-05-26T11:52:08.111Z,24.20
2019-05-26T11:54:38.520Z,24.70
2019-05-26T11:57:08.884Z,24.90
2019-05-26T11:59:39.276Z,24.60
2019-05-26T12:02:09.615Z,24.00
2019-05-26T12:04:40.143Z,24.80
2019-05-26T12:07:10.505Z,24.60
2019-05-26T12:09:40.839Z,25.50
2019-05-26T12:12:11.628Z,25.60
2019-05-26T12:14:42.417Z,24.50
2019-05-26T12:17:12.789Z,24.40
2019-05-26T12:19:43.521Z,23.80
2019-05-26T12:22:13.864Z,23.60
2019-05-26T12:24:45.211Z,23.40
2019-05-26T12:27:15.650Z,23.80
2019-05-26T12:29:45.993Z,23.70
2019-05-26T12:32:16.721Z,23.90
2019-05-26T12:34:47.133Z,23.80
2019-05-26T12:37:17.492Z,23.90
2019-05-26T12:39:47.859Z,24.30
2019-05-26T12:42:18.248Z,23.70
2019-05-26T12:44:50.105Z,23.80
2019-05-26T12:47:20.777Z,23.40
2019-05-26T12:49:51.114Z,23.40
2019-05-26T12:52:21.486Z,23.80
2019-05-26T12:54:51.826Z,23.40
2019-05-26T12:57:22.595Z,24.30
2019-05-26T12:59:53.295Z,24.00
2019-05-26T13:02:23.726Z,23.90
2019-05-26T13:04:54.206Z,24.40
2019-05-26T13:07:24.588Z,24.80
2019-05-26T13:09:54.932Z,24.00
2019-05-26T13:12:25.289Z,24.20
2019-05-26T13:15:05.382Z,23.90
2019-05-26T13:17:28.524Z,24.10
2019-05-26T13:19:58.908Z,23.00
2019-05-26T13:22:29.250Z,23.20
2019-05-26T13:24:59.650Z,23.70
2019-05-26T13:27:29.982Z,23.60
2019-05-26T13:30:00.832Z,24.10
2019-05-26T13:32:31.432Z,24.60
2019-05-26T13:35:02.077Z,23.70
2019-05-26T13:37:32.485Z,24.40
2019-05-26T13:40:03.375Z,23.90
2019-05-26T13:42:33.939Z,24.30
2019-05-26T13:45:21.274Z,24.70
2019-05-26T13:47:39.880Z,24.50
2019-05-26T13:50:10.592Z,24.70
2019-05-26T13:52:40.942Z,23.90
2019-05-26T13:55:11.617Z,23.90
2019-05-26T13:57:42.320Z,24.10
2019-05-26T14:00:16.691Z,24.00
2019-05-26T14:02:47.344Z,24.50
2019-05-26T14:05:18.242Z,24.10
2019-05-26T14:07:48.619Z,24.20
2019-05-26T14:10:36.428Z,24.30
2019-05-26T14:13:07.175Z,23.90
2019-05-26T14:15:39.186Z,23.40
2019-05-26T14:18:09.900Z,23.80
2019-05-26T14:20:42.199Z,24.30
2019-05-26T14:23:12.986Z,23.60
2019-05-26T14:25:43.442Z,23.50
2019-05-26T14:28:13.831Z,23.30
2019-05-26T14:30:44.457Z,23.50
2019-05-26T14:33:14.870Z,24.10
2019-05-26T14:35:45.213Z,23.80
2019-05-26T14:38:15.823Z,25.40
2019-05-26T14:40:46.211Z,23.80
2019-05-26T14:43:16.657Z,24.30
2019-05-26T14:45:53.461Z,24.70
2019-05-26T14:48:19.075Z,24.00
2019-05-26T14:50:49.741Z,24.20
2019-05-26T14:53:20.105Z,24.40
2019-05-26T14:55:50.710Z,23.90
2019-05-26T14:58:21.381Z,23.70
2019-05-26T15:00:52.037Z,24.70
2019-05-26T15:03:22.468Z,24.20
2019-05-26T15:06:05.005Z,25.20
2019-05-26T15:08:24.907Z,25.50
2019-05-26T15:10:55.272Z,25.20
2019-05-26T15:13:25.611Z,25.30
2019-05-26T15:16:09.282Z,24.40
2019-05-26T15:18:28.491Z,24.10
2019-05-26T15:20:58.859Z,23.60
2019-05-26T15:23:29.461Z,23.40
2019-05-26T15:25:59.928Z,23.60
2019-05-26T15:28:30.271Z,24.00
2019-05-26T15:31:00.870Z,23.90
2019-05-26T15:33:31.261Z,23.80
2019-05-26T15:36:01.968Z,23.90
2019-05-26T15:38:42.588Z,24.50
2019-05-26T15:41:04.417Z,24.90
2019-05-26T15:43:34.753Z,24.70
2019-05-26T15:46:05.171Z,25.10
2019-05-26T15:48:35.511Z,25.00
2019-05-26T15:51:06.348Z,25.40
2019-05-26T15:53:36.711Z,25.60
2019-05-26T15:56:07.129Z,25.70
2019-05-26T15:58:37.489Z,25.80
2019-05-26T16:01:07.905Z,26.50
2019-05-26T16:03:38.262Z,26.50
2019-05-26T16:06:08.630Z,26.90
2019-05-26T16:08:39.045Z,27.30
2019-05-26T16:11:09.419Z,27.50
2019-05-26T16:13:39.810Z,27.30
2019-05-26T16:16:10.156Z,27.60
2019-05-26T16:18:41.206Z,28.10
2019-05-26T16:21:26.965Z,28.40
2019-05-26T16:23:44.307Z,28.10
2019-05-26T16:26:14.676Z,28.40
2019-05-26T16:28:45.524Z,28.30
2019-05-26T16:31:15.893Z,28.30
2019-05-26T16:33:46.822Z,28.30
2019-05-26T16:36:17.199Z,28.40
2019-05-26T16:38:47.522Z,28.30
2019-05-26T16:41:17.986Z,28.90
2019-05-26T16:43:48.462Z,28.40
2019-05-26T16:46:18.828Z,28.50
2019-05-26T16:48:49.231Z,28.70
2019-05-26T16:51:19.599Z,27.90
2019-05-26T16:53:50.329Z,28.20
2019-05-26T16:56:20.716Z,27.50
2019-05-26T16:58:51.480Z,27.90
2019-05-26T17:01:21.871Z,28.50
2019-05-26T17:03:52.237Z,27.80
2019-05-26T17:06:23.024Z,27.40
2019-05-26T17:08:53.768Z,27.80
2019-05-26T17:11:24.470Z,27.80
2019-05-26T17:13:54.825Z,27.50
2019-05-26T17:16:25.190Z,27.80
2019-05-26T17:18:55.600Z,27.50
2019-05-26T17:21:26.117Z,28.70
2019-05-26T17:23:56.875Z,28.80
2019-05-26T17:26:27.413Z,28.80
2019-05-26T17:28:57.820Z,28.80
2019-05-26T17:31:28.164Z,27.90
2019-05-26T17:33:58.594Z,28.00
2019-05-26T17:36:29.084Z,28.00
2019-05-26T17:38:59.528Z,28.70
2019-05-26T17:41:30.529Z,28.80
2019-05-26T17:44:00.896Z,28.50
2019-05-26T17:46:31.863Z,28.60
2019-05-26T17:49:02.226Z,28.80
2019-05-26T17:51:32.904Z,28.80
2019-05-26T17:54:03.490Z,28.80
2019-05-26T17:56:34.186Z,29.00
2019-05-26T17:59:05.143Z,28.80
2019-05-26T18:01:35.721Z,28.90
2019-05-26T18:04:06.088Z,28.80
2019-05-26T18:06:36.468Z,28.70
2019-05-26T18:09:08.178Z,29.60
2019-05-26T18:11:38.869Z,30.00
2019-05-26T18:14:09.208Z,30.00
2019-05-26T18:16:39.614Z,30.80
2019-05-26T18:19:10.136Z,31.00
2019-05-26T18:21:40.478Z,32.10
2019-05-26T18:24:10.939Z,32.40
2019-05-26T18:26:42.011Z,32.20
2019-05-26T18:29:12.879Z,32.90
2019-05-26T18:31:43.542Z,33.00
2019-05-26T18:34:14.150Z,33.60
2019-05-26T18:36:44.859Z,33.60
2019-05-26T18:39:15.220Z,34.30
2019-05-26T18:41:45.615Z,35.20
2019-05-26T18:44:16.026Z,36.70
2019-05-26T18:46:46.762Z,35.70
2019-05-26T18:49:24.739Z,35.20
2019-05-26T18:51:55.214Z,36.30
2019-05-26T18:54:25.651Z,36.20
2019-05-26T18:56:56.354Z,37.30
2019-05-26T18:59:26.777Z,37.20
2019-05-26T19:01:57.569Z,37.30
2019-05-26T19:04:27.934Z,37.00
2019-05-26T19:06:58.783Z,37.10
2019-05-26T19:09:29.115Z,37.70
2019-05-26T19:11:59.851Z,37.20
2019-05-26T19:14:30.229Z,38.40
2019-05-26T19:17:01.039Z,37.70
2019-05-26T19:19:31.402Z,38.30
2019-05-26T19:22:01.943Z,37.90
2019-05-26T19:24:32.781Z,38.10
2019-05-26T19:27:03.148Z,38.70
2019-05-26T19:29:33.541Z,38.60
2019-05-26T19:32:03.922Z,39.00
2019-05-26T19:34:34.307Z,38.90
2019-05-26T19:37:05.119Z,39.20
2019-05-26T19:39:35.525Z,40.10
2019-05-26T19:42:06.064Z,40.60
2019-05-26T19:44:36.418Z,40.50
2019-05-26T19:47:07.043Z,40.70
2019-05-26T19:49:37.401Z,41.40
2019-05-26T19:52:08.169Z,41.50
2019-05-26T19:54:38.497Z,41.60
2019-05-26T19:57:09.234Z,41.70
2019-05-26T19:59:40.179Z,43.40
2019-05-26T20:02:18.494Z,42.50
2019-05-26T20:04:43.043Z,42.70
2019-05-26T20:07:13.412Z,44.10
2019-05-26T20:09:44.147Z,43.70
2019-05-26T20:12:15.141Z,43.60
2019-05-26T20:14:45.751Z,43.30
2019-05-26T20:17:16.495Z,42.60
2019-05-26T20:19:46.851Z,43.70
2019-05-26T20:22:17.250Z,42.40
2019-05-26T20:24:47.933Z,43.40
2019-05-26T20:27:18.764Z,43.50
2019-05-26T20:30:32.148Z,43.90
2019-05-26T20:33:02.506Z,43.30
2019-05-26T20:35:32.890Z,42.70
2019-05-26T20:38:03.674Z,42.20
2019-05-26T20:40:34.049Z,43.00
2019-05-26T20:43:04.419Z,42.60
2019-05-26T20:45:34.933Z,42.60
2019-05-26T20:48:05.670Z,43.40
2019-05-26T20:50:36.015Z,44.30
2019-05-26T20:53:06.437Z,42.80
2019-05-26T20:55:36.826Z,44.10
2019-05-26T20:58:07.551Z,41.70
2019-05-26T21:00:37.917Z,42.00
2019-05-26T21:03:08.741Z,42.30
2019-05-26T21:05:39.089Z,42.90
2019-05-26T21:08:09.484Z,42.50
2019-05-26T21:10:39.917Z,42.80
2019-05-26T21:13:10.679Z,42.50
2019-05-26T21:15:41.032Z,42.50
2019-05-26T21:18:11.376Z,42.40
2019-05-26T21:20:42.463Z,42.60
2019-05-26T21:23:13.214Z,42.70
2019-05-26T21:25:43.580Z,42.90
2019-05-26T21:28:13.948Z,44.40
2019-05-26T21:30:44.342Z,44.40
2019-05-26T21:33:14.701Z,44.40
2019-05-26T21:35:45.142Z,44.30
2019-05-26T21:38:15.827Z,44.30
2019-05-26T21:40:46.224Z,44.30
2019-05-26T21:43:16.592Z,44.40
2019-05-26T21:45:47.024Z,44.50
2019-05-26T21:48:17.367Z,44.30
2019-05-26T21:50:48.075Z,44.70
2019-05-26T21:53:18.481Z,44.90
2019-05-26T21:55:48.835Z,44.40
2019-05-26T21:58:19.489Z,45.30
2019-05-26T22:00:50.391Z,45.10
2019-05-26T22:03:20.787Z,45.00
2019-05-26T22:05:51.150Z,44.20
2019-05-26T22:08:21.545Z,45.20
2019-05-26T22:10:51.912Z,45.80
2019-05-26T22:13:22.247Z,45.40
2019-05-26T22:15:52.633Z,45.70
2019-05-26T22:18:22.986Z,45.60
2019-05-26T22:20:53.646Z,45.30
2019-05-26T22:23:24.078Z,45.40
2019-05-26T22:25:54.856Z,45.50
2019-05-26T22:28:25.191Z,45.30
2019-05-26T22:30:55.591Z,44.20
2019-05-26T22:33:25.965Z,44.70
2019-05-26T22:35:56.347Z,44.50
2019-05-26T22:38:26.714Z,44.20
2019-05-26T22:40:57.127Z,44.20
2019-05-26T22:43:27.466Z,44.20
2019-05-26T22:45:57.864Z,44.60
2019-05-26T22:48:28.226Z,44.20
2019-05-26T22:50:58.632Z,44.20
2019-05-26T22:53:28.989Z,44.20
2019-05-26T22:55:59.560Z,44.20
2019-05-26T22:58:29.894Z,44.20
2019-05-26T23:01:00.613Z,44.20
2019-05-26T23:03:31.008Z,44.30
2019-05-26T23:06:01.432Z,44.30
2019-05-26T23:08:32.074Z,44.30
2019-05-26T23:11:02.575Z,44.30
2019-05-26T23:13:33.344Z,44.30
2019-05-26T23:16:04.082Z,44.20
2019-05-26T23:18:34.728Z,45.00
2019-05-26T23:21:05.262Z,44.40
2019-05-26T23:23:35.662Z,44.80
2019-05-26T23:26:06.030Z,44.30
2019-05-26T23:28:36.677Z,44.20
2019-05-26T23:31:07.246Z,45.10
2019-05-26T23:33:37.757Z,44.20
2019-05-26T23:36:08.196Z,44.10
2019-05-26T23:38:38.602Z,44.10
2019-05-26T23:41:09.206Z,44.00
2019-05-26T23:43:39.605Z,44.30
2019-05-26T23:46:09.947Z,44.50
2019-05-26T23:48:40.619Z,44.10
2019-05-26T23:51:11.518Z,44.10
2019-05-26T23:53:42.145Z,45.20
2019-05-26T23:56:12.915Z,44.00
2019-05-26T23:58:43.313Z,44.00
